sensor_id;sensor_type;location;lat;lon;timestamp;P1;durP1;ratioP1;P2;durP2;ratioP2
5357;SDS011;2702;51.014;7.170;2023-04-06T00:01:56;9.70;;;8.13;;
5357;SDS011;2702;51.014;7.170;2023-04-06T00:04:22;10.70;;;8.70;;
5357;SDS011;2702;51.014;7.170;2023-04-06T00:06:48;10.63;;;8.33;;
5357;SDS011;2702;51.014;7.170;2023-04-06T00:09:14;9.60;;;8.30;;
5357;SDS011;2702;51.014;7.170;2023-04-06T00:11:40;8.77;;;7.67;;
5357;SDS011;2702;51.014;7.170;2023-04-06T00:14:06;9.63;;;8.67;;
5357;SDS011;2702;51.014;7.170;2023-04-06T00:16:32;9.00;;;8.10;;
5357;SDS011;2702;51.014;7.170;2023-04-06T00:18:57;9.00;;;8.10;;
5357;SDS011;2702;51.014;7.170;2023-04-06T00:21:23;9.63;;;8.13;;
5357;SDS011;2702;51.014;7.170;2023-04-06T00:23:50;7.93;;;7.23;;
5357;SDS011;2702;51.014;7.170;2023-04-06T00:26:16;10.10;;;7.63;;
5357;SDS011;2702;51.014;7.170;2023-04-06T00:28:42;8.40;;;7.37;;
5357;SDS011;2702;51.014;7.170;2023-04-06T00:31:08;8.53;;;7.20;;
5357;SDS011;2702;51.014;7.170;2023-04-06T00:33:34;8.53;;;7.80;;
5357;SDS011;2702;51.014;7.170;2023-04-06T00:36:00;8.60;;;7.70;;
5357;SDS011;2702;51.014;7.170;2023-04-06T00:38:26;10.60;;;7.90;;
5357;SDS011;2702;51.014;7.170;2023-04-06T00:40:52;8.37;;;7.10;;
5357;SDS011;2702;51.014;7.170;2023-04-06T00:43:18;9.73;;;7.40;;
5357;SDS011;2702;51.014;7.170;2023-04-06T00:45:44;9.30;;;7.30;;
5357;SDS011;2702;51.014;7.170;2023-04-06T00:48:10;8.97;;;7.60;;
5357;SDS011;2702;51.014;7.170;2023-04-06T00:50:36;9.90;;;7.67;;
5357;SDS011;2702;51.014;7.170;2023-04-06T00:53:02;10.93;;;7.30;;
5357;SDS011;2702;51.014;7.170;2023-04-06T00:55:28;10.13;;;7.73;;
5357;SDS011;2702;51.014;7.170;2023-04-06T00:57:54;12.33;;;7.40;;
5357;SDS011;2702;51.014;7.170;2023-04-06T01:00:22;8.27;;;7.03;;
5357;SDS011;2702;51.014;7.170;2023-04-06T01:02:48;10.27;;;7.07;;
5357;SDS011;2702;51.014;7.170;2023-04-06T01:05:14;10.70;;;7.47;;
5357;SDS011;2702;51.014;7.170;2023-04-06T01:07:40;8.53;;;7.23;;
5357;SDS011;2702;51.014;7.170;2023-04-06T01:10:06;8.23;;;7.10;;
5357;SDS011;2702;51.014;7.170;2023-04-06T01:12:32;9.10;;;7.10;;
5357;SDS011;2702;51.014;7.170;2023-04-06T01:14:58;7.23;;;6.63;;
5357;SDS011;2702;51.014;7.170;2023-04-06T01:17:25;7.47;;;6.53;;
5357;SDS011;2702;51.014;7.170;2023-04-06T01:19:51;7.97;;;7.13;;
5357;SDS011;2702;51.014;7.170;2023-04-06T01:22:19;9.37;;;7.00;;
5357;SDS011;2702;51.014;7.170;2023-04-06T01:24:45;8.70;;;7.20;;
5357;SDS011;2702;51.014;7.170;2023-04-06T01:27:12;7.77;;;7.00;;
5357;SDS011;2702;51.014;7.170;2023-04-06T01:29:38;8.03;;;7.30;;
5357;SDS011;2702;51.014;7.170;2023-04-06T01:32:06;7.10;;;6.10;;
5357;SDS011;2702;51.014;7.170;2023-04-06T01:34:33;8.40;;;7.27;;
5357;SDS011;2702;51.014;7.170;2023-04-06T01:36:59;7.60;;;6.80;;
5357;SDS011;2702;51.014;7.170;2023-04-06T01:39:25;9.13;;;6.40;;
5357;SDS011;2702;51.014;7.170;2023-04-06T01:41:51;8.50;;;7.30;;
5357;SDS011;2702;51.014;7.170;2023-04-06T01:44:17;8.13;;;7.23;;
5357;SDS011;2702;51.014;7.170;2023-04-06T01:46:44;8.90;;;7.10;;
5357;SDS011;2702;51.014;7.170;2023-04-06T01:49:11;8.83;;;7.03;;
5357;SDS011;2702;51.014;7.170;2023-04-06T01:51:37;10.60;;;7.07;;
5357;SDS011;2702;51.014;7.170;2023-04-06T01:54:03;7.00;;;5.93;;
5357;SDS011;2702;51.014;7.170;2023-04-06T01:56:30;6.50;;;5.90;;
5357;SDS011;2702;51.014;7.170;2023-04-06T01:58:56;7.00;;;6.30;;
5357;SDS011;2702;51.014;7.170;2023-04-06T02:01:22;8.87;;;6.87;;
5357;SDS011;2702;51.014;7.170;2023-04-06T02:03:48;7.60;;;6.80;;
5357;SDS011;2702;51.014;7.170;2023-04-06T02:06:14;9.23;;;6.60;;
5357;SDS011;2702;51.014;7.170;2023-04-06T02:08:39;7.80;;;6.90;;
5357;SDS011;2702;51.014;7.170;2023-04-06T02:11:06;7.83;;;7.07;;
5357;SDS011;2702;51.014;7.170;2023-04-06T02:13:32;8.50;;;7.20;;
5357;SDS011;2702;51.014;7.170;2023-04-06T02:15:59;8.70;;;6.37;;
5357;SDS011;2702;51.014;7.170;2023-04-06T02:18:25;9.53;;;7.20;;
5357;SDS011;2702;51.014;7.170;2023-04-06T02:20:51;7.80;;;7.00;;
5357;SDS011;2702;51.014;7.170;2023-04-06T02:23:16;8.60;;;7.60;;
5357;SDS011;2702;51.014;7.170;2023-04-06T02:25:42;12.93;;;6.70;;
5357;SDS011;2702;51.014;7.170;2023-04-06T02:28:08;7.40;;;6.70;;
5357;SDS011;2702;51.014;7.170;2023-04-06T02:30:34;6.87;;;6.17;;
5357;SDS011;2702;51.014;7.170;2023-04-06T02:33:00;12.03;;;7.20;;
5357;SDS011;2702;51.014;7.170;2023-04-06T02:35:30;7.70;;;6.40;;
5357;SDS011;2702;51.014;7.170;2023-04-06T02:37:56;8.90;;;7.83;;
5357;SDS011;2702;51.014;7.170;2023-04-06T02:40:22;7.80;;;7.00;;
5357;SDS011;2702;51.014;7.170;2023-04-06T02:42:48;7.60;;;6.83;;
5357;SDS011;2702;51.014;7.170;2023-04-06T02:45:14;8.60;;;7.17;;
5357;SDS011;2702;51.014;7.170;2023-04-06T02:47:40;9.57;;;7.37;;
5357;SDS011;2702;51.014;7.170;2023-04-06T02:50:06;8.40;;;7.23;;
5357;SDS011;2702;51.014;7.170;2023-04-06T02:52:32;7.80;;;7.00;;
5357;SDS011;2702;51.014;7.170;2023-04-06T02:54:58;9.40;;;7.70;;
5357;SDS011;2702;51.014;7.170;2023-04-06T02:57:24;11.30;;;7.40;;
5357;SDS011;2702;51.014;7.170;2023-04-06T02:59:50;7.43;;;6.70;;
5357;SDS011;2702;51.014;7.170;2023-04-06T03:02:16;9.10;;;7.43;;
5357;SDS011;2702;51.014;7.170;2023-04-06T03:04:42;8.30;;;7.30;;
5357;SDS011;2702;51.014;7.170;2023-04-06T03:07:09;7.20;;;6.57;;
5357;SDS011;2702;51.014;7.170;2023-04-06T03:09:39;8.40;;;7.27;;
5357;SDS011;2702;51.014;7.170;2023-04-06T03:12:05;7.20;;;6.50;;
5357;SDS011;2702;51.014;7.170;2023-04-06T03:14:31;7.70;;;6.50;;
5357;SDS011;2702;51.014;7.170;2023-04-06T03:16:57;9.63;;;6.60;;
5357;SDS011;2702;51.014;7.170;2023-04-06T03:19:23;8.77;;;7.63;;
5357;SDS011;2702;51.014;7.170;2023-04-06T03:21:48;9.63;;;6.70;;
5357;SDS011;2702;51.014;7.170;2023-04-06T03:24:14;8.67;;;7.10;;
5357;SDS011;2702;51.014;7.170;2023-04-06T03:26:40;7.93;;;7.13;;
5357;SDS011;2702;51.014;7.170;2023-04-06T03:29:07;8.03;;;6.97;;
5357;SDS011;2702;51.014;7.170;2023-04-06T03:31:33;7.87;;;6.13;;
5357;SDS011;2702;51.014;7.170;2023-04-06T03:33:59;7.77;;;6.97;;
5357;SDS011;2702;51.014;7.170;2023-04-06T03:36:25;8.87;;;7.70;;
5357;SDS011;2702;51.014;7.170;2023-04-06T03:38:51;8.33;;;7.20;;
5357;SDS011;2702;51.014;7.170;2023-04-06T03:41:18;7.63;;;6.50;;
5357;SDS011;2702;51.014;7.170;2023-04-06T03:43:45;7.00;;;6.30;;
5357;SDS011;2702;51.014;7.170;2023-04-06T03:46:11;7.30;;;6.30;;
5357;SDS011;2702;51.014;7.170;2023-04-06T03:48:37;7.53;;;6.30;;
5357;SDS011;2702;51.014;7.170;2023-04-06T03:51:03;7.23;;;6.60;;
5357;SDS011;2702;51.014;7.170;2023-04-06T03:53:29;7.33;;;6.63;;
5357;SDS011;2702;51.014;7.170;2023-04-06T03:55:55;11.03;;;6.80;;
5357;SDS011;2702;51.014;7.170;2023-04-06T03:58:21;8.90;;;6.80;;
5357;SDS011;2702;51.014;7.170;2023-04-06T04:00:47;8.17;;;6.90;;
5357;SDS011;2702;51.014;7.170;2023-04-06T04:03:13;6.93;;;6.03;;
5357;SDS011;2702;51.014;7.170;2023-04-06T04:05:39;7.37;;;6.57;;
5357;SDS011;2702;51.014;7.170;2023-04-06T04:08:05;7.50;;;6.60;;
5357;SDS011;2702;51.014;7.170;2023-04-06T04:10:31;9.17;;;6.73;;
5357;SDS011;2702;51.014;7.170;2023-04-06T04:12:57;8.67;;;7.20;;
5357;SDS011;2702;51.014;7.170;2023-04-06T04:15:23;8.00;;;6.40;;
5357;SDS011;2702;51.014;7.170;2023-04-06T04:17:49;7.97;;;7.23;;
5357;SDS011;2702;51.014;7.170;2023-04-06T04:20:15;7.60;;;6.80;;
5357;SDS011;2702;51.014;7.170;2023-04-06T04:22:41;8.00;;;6.73;;
5357;SDS011;2702;51.014;7.170;2023-04-06T04:25:08;7.40;;;6.70;;
5357;SDS011;2702;51.014;7.170;2023-04-06T04:27:34;9.73;;;7.00;;
5357;SDS011;2702;51.014;7.170;2023-04-06T04:30:00;7.10;;;6.40;;
5357;SDS011;2702;51.014;7.170;2023-04-06T04:32:26;8.90;;;6.70;;
5357;SDS011;2702;51.014;7.170;2023-04-06T04:34:53;8.50;;;6.50;;
5357;SDS011;2702;51.014;7.170;2023-04-06T04:37:19;8.67;;;6.97;;
5357;SDS011;2702;51.014;7.170;2023-04-06T04:39:45;6.50;;;5.87;;
5357;SDS011;2702;51.014;7.170;2023-04-06T04:42:11;9.27;;;6.50;;
5357;SDS011;2702;51.014;7.170;2023-04-06T04:44:37;7.10;;;6.40;;
5357;SDS011;2702;51.014;7.170;2023-04-06T04:47:03;10.63;;;7.00;;
5357;SDS011;2702;51.014;7.170;2023-04-06T04:49:29;7.70;;;6.90;;
5357;SDS011;2702;51.014;7.170;2023-04-06T04:51:55;9.10;;;6.50;;
5357;SDS011;2702;51.014;7.170;2023-04-06T04:54:21;7.57;;;6.33;;
5357;SDS011;2702;51.014;7.170;2023-04-06T04:56:46;7.90;;;6.90;;
5357;SDS011;2702;51.014;7.170;2023-04-06T04:59:12;7.33;;;6.53;;
5357;SDS011;2702;51.014;7.170;2023-04-06T05:01:38;8.37;;;7.17;;
5357;SDS011;2702;51.014;7.170;2023-04-06T05:04:04;7.87;;;7.00;;
5357;SDS011;2702;51.014;7.170;2023-04-06T05:06:30;9.20;;;6.53;;
5357;SDS011;2702;51.014;7.170;2023-04-06T05:08:56;9.70;;;7.33;;
5357;SDS011;2702;51.014;7.170;2023-04-06T05:11:22;9.70;;;7.10;;
5357;SDS011;2702;51.014;7.170;2023-04-06T05:13:48;8.37;;;6.87;;
5357;SDS011;2702;51.014;7.170;2023-04-06T05:16:15;7.63;;;6.70;;
5357;SDS011;2702;51.014;7.170;2023-04-06T05:18:41;8.50;;;7.10;;
5357;SDS011;2702;51.014;7.170;2023-04-06T05:21:07;8.57;;;7.20;;
5357;SDS011;2702;51.014;7.170;2023-04-06T05:23:33;9.97;;;6.83;;
5357;SDS011;2702;51.014;7.170;2023-04-06T05:25:59;11.10;;;7.13;;
5357;SDS011;2702;51.014;7.170;2023-04-06T05:28:25;6.90;;;6.20;;
5357;SDS011;2702;51.014;7.170;2023-04-06T05:30:52;7.60;;;6.90;;
5357;SDS011;2702;51.014;7.170;2023-04-06T05:33:18;7.93;;;7.10;;
5357;SDS011;2702;51.014;7.170;2023-04-06T05:35:44;8.20;;;7.03;;
5357;SDS011;2702;51.014;7.170;2023-04-06T05:38:10;6.87;;;6.23;;
5357;SDS011;2702;51.014;7.170;2023-04-06T05:40:36;7.07;;;6.37;;
5357;SDS011;2702;51.014;7.170;2023-04-06T05:43:06;9.37;;;6.70;;
5357;SDS011;2702;51.014;7.170;2023-04-06T05:45:33;8.67;;;6.90;;
5357;SDS011;2702;51.014;7.170;2023-04-06T05:48:00;8.33;;;7.20;;
5357;SDS011;2702;51.014;7.170;2023-04-06T05:50:27;7.30;;;6.60;;
5357;SDS011;2702;51.014;7.170;2023-04-06T05:52:53;8.50;;;6.63;;
5357;SDS011;2702;51.014;7.170;2023-04-06T05:55:19;7.43;;;6.67;;
5357;SDS011;2702;51.014;7.170;2023-04-06T05:57:45;8.43;;;6.90;;
5357;SDS011;2702;51.014;7.170;2023-04-06T06:00:11;6.93;;;5.93;;
5357;SDS011;2702;51.014;7.170;2023-04-06T06:02:38;9.63;;;7.30;;
5357;SDS011;2702;51.014;7.170;2023-04-06T06:05:04;8.93;;;6.47;;
5357;SDS011;2702;51.014;7.170;2023-04-06T06:07:30;7.77;;;6.97;;
5357;SDS011;2702;51.014;7.170;2023-04-06T06:09:57;7.50;;;6.73;;
5357;SDS011;2702;51.014;7.170;2023-04-06T06:12:23;8.30;;;6.63;;
5357;SDS011;2702;51.014;7.170;2023-04-06T06:14:49;7.10;;;6.40;;
5357;SDS011;2702;51.014;7.170;2023-04-06T06:17:15;7.40;;;6.13;;
5357;SDS011;2702;51.014;7.170;2023-04-06T06:19:41;8.90;;;7.13;;
5357;SDS011;2702;51.014;7.170;2023-04-06T06:22:07;7.20;;;6.50;;
5357;SDS011;2702;51.014;7.170;2023-04-06T06:24:33;7.37;;;6.60;;
5357;SDS011;2702;51.014;7.170;2023-04-06T06:26:59;9.27;;;6.90;;
5357;SDS011;2702;51.014;7.170;2023-04-06T06:29:25;8.27;;;6.53;;
5357;SDS011;2702;51.014;7.170;2023-04-06T06:31:51;7.30;;;6.60;;
5357;SDS011;2702;51.014;7.170;2023-04-06T06:34:17;8.50;;;6.30;;
5357;SDS011;2702;51.014;7.170;2023-04-06T06:36:42;6.83;;;6.13;;
5357;SDS011;2702;51.014;7.170;2023-04-06T06:39:08;7.57;;;6.70;;
5357;SDS011;2702;51.014;7.170;2023-04-06T06:41:34;8.07;;;6.80;;
5357;SDS011;2702;51.014;7.170;2023-04-06T06:44:00;7.73;;;6.67;;
5357;SDS011;2702;51.014;7.170;2023-04-06T06:46:27;6.90;;;6.20;;
5357;SDS011;2702;51.014;7.170;2023-04-06T06:48:53;9.50;;;6.60;;
5357;SDS011;2702;51.014;7.170;2023-04-06T06:51:19;7.27;;;6.53;;
5357;SDS011;2702;51.014;7.170;2023-04-06T06:53:45;8.53;;;6.33;;
5357;SDS011;2702;51.014;7.170;2023-04-06T06:56:11;7.10;;;6.40;;
5357;SDS011;2702;51.014;7.170;2023-04-06T06:58:37;8.47;;;6.90;;
5357;SDS011;2702;51.014;7.170;2023-04-06T07:01:03;8.00;;;7.20;;
5357;SDS011;2702;51.014;7.170;2023-04-06T07:03:30;7.30;;;6.60;;
5357;SDS011;2702;51.014;7.170;2023-04-06T07:05:56;9.10;;;6.70;;
5357;SDS011;2702;51.014;7.170;2023-04-06T07:08:22;10.00;;;7.10;;
5357;SDS011;2702;51.014;7.170;2023-04-06T07:10:50;7.77;;;6.40;;
5357;SDS011;2702;51.014;7.170;2023-04-06T07:13:21;8.17;;;6.83;;
5357;SDS011;2702;51.014;7.170;2023-04-06T07:15:51;7.40;;;6.70;;
5357;SDS011;2702;51.014;7.170;2023-04-06T07:18:18;7.53;;;6.83;;
5357;SDS011;2702;51.014;7.170;2023-04-06T07:20:44;8.30;;;6.90;;
5357;SDS011;2702;51.014;7.170;2023-04-06T07:23:11;7.50;;;6.70;;
5357;SDS011;2702;51.014;7.170;2023-04-06T07:25:36;7.77;;;6.73;;
5357;SDS011;2702;51.014;7.170;2023-04-06T07:28:03;7.03;;;6.33;;
5357;SDS011;2702;51.014;7.170;2023-04-06T07:30:29;8.63;;;6.40;;
5357;SDS011;2702;51.014;7.170;2023-04-06T07:32:56;9.40;;;6.43;;
5357;SDS011;2702;51.014;7.170;2023-04-06T07:35:24;7.87;;;6.80;;
5357;SDS011;2702;51.014;7.170;2023-04-06T07:37:52;7.30;;;6.70;;
5357;SDS011;2702;51.014;7.170;2023-04-06T07:40:18;7.10;;;6.40;;
5357;SDS011;2702;51.014;7.170;2023-04-06T07:42:45;7.17;;;6.47;;
5357;SDS011;2702;51.014;7.170;2023-04-06T07:45:11;9.00;;;7.00;;
5357;SDS011;2702;51.014;7.170;2023-04-06T07:47:37;7.13;;;6.43;;
5357;SDS011;2702;51.014;7.170;2023-04-06T07:50:03;8.70;;;7.40;;
5357;SDS011;2702;51.014;7.170;2023-04-06T07:52:30;8.43;;;7.57;;
5357;SDS011;2702;51.014;7.170;2023-04-06T07:54:57;7.80;;;7.00;;
5357;SDS011;2702;51.014;7.170;2023-04-06T07:57:23;8.90;;;7.37;;
5357;SDS011;2702;51.014;7.170;2023-04-06T07:59:49;7.43;;;6.70;;
5357;SDS011;2702;51.014;7.170;2023-04-06T08:02:15;8.07;;;7.27;;
5357;SDS011;2702;51.014;7.170;2023-04-06T08:04:41;9.10;;;7.83;;
5357;SDS011;2702;51.014;7.170;2023-04-06T08:07:08;8.73;;;7.83;;
5357;SDS011;2702;51.014;7.170;2023-04-06T08:09:33;7.23;;;6.53;;
5357;SDS011;2702;51.014;7.170;2023-04-06T08:11:59;7.73;;;6.97;;
5357;SDS011;2702;51.014;7.170;2023-04-06T08:14:25;9.53;;;7.93;;
5357;SDS011;2702;51.014;7.170;2023-04-06T08:16:51;10.40;;;7.53;;
5357;SDS011;2702;51.014;7.170;2023-04-06T08:19:17;9.27;;;8.10;;
5357;SDS011;2702;51.014;7.170;2023-04-06T08:21:44;8.30;;;7.47;;
5357;SDS011;2702;51.014;7.170;2023-04-06T08:24:11;12.77;;;7.67;;
5357;SDS011;2702;51.014;7.170;2023-04-06T08:26:37;8.60;;;7.70;;
5357;SDS011;2702;51.014;7.170;2023-04-06T08:29:03;9.73;;;7.73;;
5357;SDS011;2702;51.014;7.170;2023-04-06T08:31:35;8.63;;;7.83;;
5357;SDS011;2702;51.014;7.170;2023-04-06T08:34:02;9.40;;;7.77;;
5357;SDS011;2702;51.014;7.170;2023-04-06T08:36:29;8.63;;;7.70;;
5357;SDS011;2702;51.014;7.170;2023-04-06T08:38:56;9.50;;;7.60;;
5357;SDS011;2702;51.014;7.170;2023-04-06T08:41:22;8.17;;;7.33;;
5357;SDS011;2702;51.014;7.170;2023-04-06T08:43:49;9.47;;;8.10;;
5357;SDS011;2702;51.014;7.170;2023-04-06T08:46:23;11.07;;;8.10;;
5357;SDS011;2702;51.014;7.170;2023-04-06T08:48:56;9.30;;;8.40;;
5357;SDS011;2702;51.014;7.170;2023-04-06T08:51:23;9.87;;;8.07;;
5357;SDS011;2702;51.014;7.170;2023-04-06T08:53:52;9.93;;;8.27;;
5357;SDS011;2702;51.014;7.170;2023-04-06T08:56:22;8.90;;;8.00;;
5357;SDS011;2702;51.014;7.170;2023-04-06T08:58:48;9.97;;;8.07;;
5357;SDS011;2702;51.014;7.170;2023-04-06T09:01:16;9.20;;;7.87;;
5357;SDS011;2702;51.014;7.170;2023-04-06T09:03:45;8.90;;;8.10;;
5357;SDS011;2702;51.014;7.170;2023-04-06T09:06:13;9.20;;;8.20;;
5357;SDS011;2702;51.014;7.170;2023-04-06T09:08:40;10.00;;;8.40;;
5357;SDS011;2702;51.014;7.170;2023-04-06T09:11:06;10.50;;;9.30;;
5357;SDS011;2702;51.014;7.170;2023-04-06T09:13:46;9.13;;;8.17;;
5357;SDS011;2702;51.014;7.170;2023-04-06T09:16:21;8.70;;;7.43;;
5357;SDS011;2702;51.014;7.170;2023-04-06T09:18:48;9.23;;;8.30;;
5357;SDS011;2702;51.014;7.170;2023-04-06T09:21:18;10.67;;;8.60;;
5357;SDS011;2702;51.014;7.170;2023-04-06T09:23:45;12.17;;;8.90;;
5357;SDS011;2702;51.014;7.170;2023-04-06T09:26:12;9.10;;;8.17;;
5357;SDS011;2702;51.014;7.170;2023-04-06T09:28:45;9.27;;;8.27;;
5357;SDS011;2702;51.014;7.170;2023-04-06T09:31:25;8.70;;;7.80;;
5357;SDS011;2702;51.014;7.170;2023-04-06T09:33:53;8.87;;;7.70;;
5357;SDS011;2702;51.014;7.170;2023-04-06T09:36:20;12.70;;;8.73;;
5357;SDS011;2702;51.014;7.170;2023-04-06T09:38:57;11.10;;;8.30;;
5357;SDS011;2702;51.014;7.170;2023-04-06T09:41:28;11.60;;;9.37;;
5357;SDS011;2702;51.014;7.170;2023-04-06T09:46:52;10.40;;;9.40;;
5357;SDS011;2702;51.014;7.170;2023-04-06T09:49:20;12.03;;;8.93;;
5357;SDS011;2702;51.014;7.170;2023-04-06T09:51:48;10.00;;;8.90;;
5357;SDS011;2702;51.014;7.170;2023-04-06T09:54:22;10.70;;;9.17;;
5357;SDS011;2702;51.014;7.170;2023-04-06T10:02:16;13.10;;;9.50;;
5357;SDS011;2702;51.014;7.170;2023-04-06T10:04:50;11.70;;;8.97;;
5357;SDS011;2702;51.014;7.170;2023-04-06T10:07:22;11.13;;;9.07;;
5357;SDS011;2702;51.014;7.170;2023-04-06T10:09:48;12.83;;;9.53;;
5357;SDS011;2702;51.014;7.170;2023-04-06T10:12:16;10.77;;;9.00;;
5357;SDS011;2702;51.014;7.170;2023-04-06T10:14:42;9.43;;;8.50;;
5357;SDS011;2702;51.014;7.170;2023-04-06T10:17:09;9.87;;;8.77;;
5357;SDS011;2702;51.014;7.170;2023-04-06T10:19:42;15.00;;;10.50;;
5357;SDS011;2702;51.014;7.170;2023-04-06T10:25:15;12.37;;;9.93;;
5357;SDS011;2702;51.014;7.170;2023-04-06T10:27:42;11.70;;;10.43;;
5357;SDS011;2702;51.014;7.170;2023-04-06T10:30:08;10.80;;;9.70;;
5357;SDS011;2702;51.014;7.170;2023-04-06T10:32:34;10.73;;;9.37;;
5357;SDS011;2702;51.014;7.170;2023-04-06T10:35:08;10.50;;;8.40;;
5357;SDS011;2702;51.014;7.170;2023-04-06T10:40:26;13.63;;;9.97;;
5357;SDS011;2702;51.014;7.170;2023-04-06T10:42:53;12.93;;;9.40;;
5357;SDS011;2702;51.014;7.170;2023-04-06T10:45:24;11.60;;;9.67;;
5357;SDS011;2702;51.014;7.170;2023-04-06T10:47:54;11.93;;;10.00;;
5357;SDS011;2702;51.014;7.170;2023-04-06T10:50:21;13.97;;;9.63;;
5357;SDS011;2702;51.014;7.170;2023-04-06T10:52:58;10.43;;;9.30;;
5357;SDS011;2702;51.014;7.170;2023-04-06T10:55:26;11.43;;;9.40;;
5357;SDS011;2702;51.014;7.170;2023-04-06T10:57:56;14.00;;;10.10;;
5357;SDS011;2702;51.014;7.170;2023-04-06T11:00:22;11.07;;;9.70;;
5357;SDS011;2702;51.014;7.170;2023-04-06T11:02:48;13.30;;;10.30;;
5357;SDS011;2702;51.014;7.170;2023-04-06T11:05:14;11.53;;;10.30;;
5357;SDS011;2702;51.014;7.170;2023-04-06T11:07:40;12.40;;;9.97;;
5357;SDS011;2702;51.014;7.170;2023-04-06T11:10:07;12.47;;;10.00;;
5357;SDS011;2702;51.014;7.170;2023-04-06T11:12:33;11.57;;;10.00;;
5357;SDS011;2702;51.014;7.170;2023-04-06T11:15:00;11.43;;;9.50;;
5357;SDS011;2702;51.014;7.170;2023-04-06T11:17:32;11.63;;;10.07;;
5357;SDS011;2702;51.014;7.170;2023-04-06T11:20:02;12.23;;;10.67;;
5357;SDS011;2702;51.014;7.170;2023-04-06T11:22:30;13.03;;;11.17;;
5357;SDS011;2702;51.014;7.170;2023-04-06T11:25:06;14.77;;;11.13;;
5357;SDS011;2702;51.014;7.170;2023-04-06T11:27:35;13.77;;;10.20;;
5357;SDS011;2702;51.014;7.170;2023-04-06T11:30:02;15.33;;;10.90;;
5357;SDS011;2702;51.014;7.170;2023-04-06T11:32:28;13.10;;;10.27;;
5357;SDS011;2702;51.014;7.170;2023-04-06T11:34:54;14.77;;;10.30;;
5357;SDS011;2702;51.014;7.170;2023-04-06T11:37:25;13.47;;;11.17;;
5357;SDS011;2702;51.014;7.170;2023-04-06T11:39:54;13.20;;;11.70;;
5357;SDS011;2702;51.014;7.170;2023-04-06T11:42:25;13.37;;;11.67;;
5357;SDS011;2702;51.014;7.170;2023-04-06T11:44:56;13.50;;;11.30;;
5357;SDS011;2702;51.014;7.170;2023-04-06T11:50:23;13.13;;;11.40;;
5357;SDS011;2702;51.014;7.170;2023-04-06T11:52:57;12.77;;;11.20;;
5357;SDS011;2702;51.014;7.170;2023-04-06T11:55:25;15.17;;;10.67;;
5357;SDS011;2702;51.014;7.170;2023-04-06T11:57:51;12.57;;;9.87;;
5357;SDS011;2702;51.014;7.170;2023-04-06T12:00:17;14.70;;;10.90;;
5357;SDS011;2702;51.014;7.170;2023-04-06T12:02:47;14.27;;;9.97;;
5357;SDS011;2702;51.014;7.170;2023-04-06T12:05:13;13.80;;;10.70;;
5357;SDS011;2702;51.014;7.170;2023-04-06T12:07:39;13.47;;;10.67;;
5357;SDS011;2702;51.014;7.170;2023-04-06T12:10:05;11.17;;;10.07;;
5357;SDS011;2702;51.014;7.170;2023-04-06T12:12:32;11.93;;;9.33;;
5357;SDS011;2702;51.014;7.170;2023-04-06T12:14:58;12.83;;;10.33;;
5357;SDS011;2702;51.014;7.170;2023-04-06T12:17:25;13.83;;;10.73;;
5357;SDS011;2702;51.014;7.170;2023-04-06T12:19:51;14.93;;;10.93;;
5357;SDS011;2702;51.014;7.170;2023-04-06T12:22:17;13.50;;;10.47;;
5357;SDS011;2702;51.014;7.170;2023-04-06T12:24:43;15.03;;;10.27;;
5357;SDS011;2702;51.014;7.170;2023-04-06T12:27:09;13.20;;;11.03;;
5357;SDS011;2702;51.014;7.170;2023-04-06T12:29:37;11.40;;;10.30;;
5357;SDS011;2702;51.014;7.170;2023-04-06T12:32:03;14.10;;;10.03;;
5357;SDS011;2702;51.014;7.170;2023-04-06T12:34:30;13.30;;;10.67;;
5357;SDS011;2702;51.014;7.170;2023-04-06T12:36:56;11.10;;;9.90;;
5357;SDS011;2702;51.014;7.170;2023-04-06T12:39:22;11.57;;;10.40;;
5357;SDS011;2702;51.014;7.170;2023-04-06T12:41:48;11.60;;;10.27;;
5357;SDS011;2702;51.014;7.170;2023-04-06T12:44:15;13.97;;;10.83;;
5357;SDS011;2702;51.014;7.170;2023-04-06T12:46:40;13.20;;;10.93;;
5357;SDS011;2702;51.014;7.170;2023-04-06T12:49:08;14.60;;;10.40;;
5357;SDS011;2702;51.014;7.170;2023-04-06T12:51:34;11.40;;;9.93;;
5357;SDS011;2702;51.014;7.170;2023-04-06T12:54:00;11.10;;;10.00;;
5357;SDS011;2702;51.014;7.170;2023-04-06T12:56:26;16.10;;;11.03;;
5357;SDS011;2702;51.014;7.170;2023-04-06T12:58:52;12.73;;;10.40;;
5357;SDS011;2702;51.014;7.170;2023-04-06T13:01:18;10.70;;;9.60;;
5357;SDS011;2702;51.014;7.170;2023-04-06T13:03:45;11.43;;;9.27;;
5357;SDS011;2702;51.014;7.170;2023-04-06T13:06:11;12.47;;;9.77;;
5357;SDS011;2702;51.014;7.170;2023-04-06T13:08:38;9.33;;;8.43;;
5357;SDS011;2702;51.014;7.170;2023-04-06T13:11:04;8.70;;;7.80;;
5357;SDS011;2702;51.014;7.170;2023-04-06T13:13:34;8.70;;;6.93;;
5357;SDS011;2702;51.014;7.170;2023-04-06T13:16:01;10.00;;;8.70;;
5357;SDS011;2702;51.014;7.170;2023-04-06T13:18:29;10.87;;;8.83;;
5357;SDS011;2702;51.014;7.170;2023-04-06T13:20:56;9.93;;;7.83;;
5357;SDS011;2702;51.014;7.170;2023-04-06T13:23:23;7.37;;;6.67;;
5357;SDS011;2702;51.014;7.170;2023-04-06T13:28:44;9.03;;;8.07;;
5357;SDS011;2702;51.014;7.170;2023-04-06T13:31:10;11.17;;;8.27;;
5357;SDS011;2702;51.014;7.170;2023-04-06T13:33:35;9.70;;;7.37;;
5357;SDS011;2702;51.014;7.170;2023-04-06T13:36:02;9.90;;;6.43;;
5357;SDS011;2702;51.014;7.170;2023-04-06T13:38:29;8.90;;;7.83;;
5357;SDS011;2702;51.014;7.170;2023-04-06T13:40:55;10.03;;;8.37;;
5357;SDS011;2702;51.014;7.170;2023-04-06T13:43:21;9.30;;;8.17;;
5357;SDS011;2702;51.014;7.170;2023-04-06T13:45:50;9.27;;;8.10;;
5357;SDS011;2702;51.014;7.170;2023-04-06T13:48:19;11.43;;;7.50;;
5357;SDS011;2702;51.014;7.170;2023-04-06T13:50:45;8.40;;;7.03;;
5357;SDS011;2702;51.014;7.170;2023-04-06T13:53:11;9.07;;;7.17;;
5357;SDS011;2702;51.014;7.170;2023-04-06T13:55:37;12.37;;;8.17;;
5357;SDS011;2702;51.014;7.170;2023-04-06T13:58:03;15.30;;;8.37;;
5357;SDS011;2702;51.014;7.170;2023-04-06T14:00:28;8.80;;;7.30;;
5357;SDS011;2702;51.014;7.170;2023-04-06T14:02:55;8.60;;;7.60;;
5357;SDS011;2702;51.014;7.170;2023-04-06T14:05:21;10.67;;;7.90;;
5357;SDS011;2702;51.014;7.170;2023-04-06T14:07:48;10.57;;;8.00;;
5357;SDS011;2702;51.014;7.170;2023-04-06T14:10:15;11.50;;;8.23;;
5357;SDS011;2702;51.014;7.170;2023-04-06T14:12:44;10.23;;;8.17;;
5357;SDS011;2702;51.014;7.170;2023-04-06T14:15:12;11.37;;;8.40;;
5357;SDS011;2702;51.014;7.170;2023-04-06T14:17:38;10.30;;;8.60;;
5357;SDS011;2702;51.014;7.170;2023-04-06T14:20:08;12.03;;;8.00;;
5357;SDS011;2702;51.014;7.170;2023-04-06T14:22:39;8.33;;;7.03;;
5357;SDS011;2702;51.014;7.170;2023-04-06T14:25:06;8.63;;;6.77;;
5357;SDS011;2702;51.014;7.170;2023-04-06T14:27:32;6.80;;;5.83;;
5357;SDS011;2702;51.014;7.170;2023-04-06T14:29:58;6.70;;;6.10;;
5357;SDS011;2702;51.014;7.170;2023-04-06T14:32:24;7.70;;;6.23;;
5357;SDS011;2702;51.014;7.170;2023-04-06T14:34:51;8.43;;;6.77;;
5357;SDS011;2702;51.014;7.170;2023-04-06T14:37:16;8.40;;;7.33;;
5357;SDS011;2702;51.014;7.170;2023-04-06T14:39:43;9.20;;;7.30;;
5357;SDS011;2702;51.014;7.170;2023-04-06T14:42:09;8.80;;;6.70;;
5357;SDS011;2702;51.014;7.170;2023-04-06T14:44:35;7.27;;;6.60;;
5357;SDS011;2702;51.014;7.170;2023-04-06T14:47:02;12.17;;;7.07;;
5357;SDS011;2702;51.014;7.170;2023-04-06T14:49:29;8.40;;;7.37;;
5357;SDS011;2702;51.014;7.170;2023-04-06T14:51:55;8.40;;;7.10;;
5357;SDS011;2702;51.014;7.170;2023-04-06T14:54:22;9.97;;;7.00;;
5357;SDS011;2702;51.014;7.170;2023-04-06T14:56:48;8.80;;;7.17;;
5357;SDS011;2702;51.014;7.170;2023-04-06T14:59:14;7.23;;;6.40;;
5357;SDS011;2702;51.014;7.170;2023-04-06T15:01:39;8.53;;;6.47;;
5357;SDS011;2702;51.014;7.170;2023-04-06T15:04:06;7.70;;;6.33;;
5357;SDS011;2702;51.014;7.170;2023-04-06T15:06:32;7.87;;;6.20;;
5357;SDS011;2702;51.014;7.170;2023-04-06T15:08:58;11.57;;;6.23;;
5357;SDS011;2702;51.014;7.170;2023-04-06T15:11:24;6.63;;;5.83;;
5357;SDS011;2702;51.014;7.170;2023-04-06T15:13:51;7.03;;;6.10;;
5357;SDS011;2702;51.014;7.170;2023-04-06T15:16:17;8.57;;;6.93;;
5357;SDS011;2702;51.014;7.170;2023-04-06T15:18:43;7.73;;;6.27;;
5357;SDS011;2702;51.014;7.170;2023-04-06T15:21:08;9.30;;;7.87;;
5357;SDS011;2702;51.014;7.170;2023-04-06T15:23:36;7.63;;;6.83;;
5357;SDS011;2702;51.014;7.170;2023-04-06T15:26:02;9.60;;;7.93;;
5357;SDS011;2702;51.014;7.170;2023-04-06T15:28:28;8.60;;;7.70;;